createdAt,value
2023-01-28T00:02:59.640Z,57.20
2023-01-28T00:15:50.792Z,63.43
2023-01-28T00:18:17.903Z,58.09
2023-01-28T00:20:58.505Z,54.55
2023-01-28T00:27:16.215Z,58.97
2023-01-28T00:33:36.988Z,62.41
2023-01-28T00:36:19.625Z,62.68
2023-01-28T00:39:37.570Z,56.77
2023-01-28T00:43:13.656Z,54.60
2023-01-28T00:45:55.321Z,57.16
2023-01-28T00:48:48.218Z,58.96
2023-01-28T00:55:02.386Z,61.16
2023-01-28T01:05:53.095Z,54.26
2023-01-28T01:12:37.355Z,57.78
2023-01-28T01:15:34.841Z,58.70
2023-01-28T01:21:47.282Z,61.51
2023-01-28T01:24:46.531Z,62.31
2023-01-28T01:41:55.544Z,58.35
2023-01-28T01:44:54.877Z,59.38
2023-01-28T01:47:47.194Z,60.43
2023-01-28T01:51:12.189Z,61.01
2023-01-28T01:54:10.302Z,63.56
2023-01-28T02:03:24.132Z,55.34
2023-01-28T02:12:58.505Z,59.83
2023-01-28T02:15:52.030Z,61.02
2023-01-28T02:18:52.441Z,63.03
2023-01-28T02:22:18.115Z,62.14
2023-01-28T02:25:43.815Z,55.31
2023-01-28T02:28:42.587Z,55.80
2023-01-28T02:31:19.361Z,57.69
2023-01-28T02:34:08.869Z,58.51
2023-01-28T02:36:43.612Z,59.83
2023-01-28T02:39:18.747Z,60.58
2023-01-28T02:41:53.520Z,61.48
2023-01-28T02:44:20.673Z,63.79
2023-01-28T02:47:06.073Z,62.92
2023-01-28T02:49:49.128Z,55.75
2023-01-28T02:52:56.314Z,53.97
2023-01-28T02:55:51.451Z,56.05
2023-01-28T02:58:29.343Z,57.88
2023-01-28T03:01:03.281Z,58.74
2023-01-28T03:03:48.553Z,59.87
2023-01-28T03:06:21.389Z,60.71
2023-01-28T03:09:15.515Z,61.71
2023-01-28T03:12:06.721Z,62.50
2023-01-28T03:14:54.998Z,64.74
2023-01-28T03:18:01.152Z,59.55
2023-01-28T03:20:55.777Z,54.51
2023-01-28T03:23:49.560Z,55.65
2023-01-28T03:26:40.540Z,57.50
2023-01-28T03:29:30.845Z,58.68
2023-01-28T03:32:18.756Z,59.90
2023-01-28T03:35:05.352Z,60.72
2023-01-28T03:37:34.571Z,61.89
2023-01-28T03:40:14.223Z,63.25
2023-01-28T03:42:43.776Z,63.63
2023-01-28T03:45:22.666Z,58.33
2023-01-28T03:47:49.891Z,54.35
2023-01-28T03:50:17.152Z,55.35
2023-01-28T03:53:11.771Z,57.15
2023-01-28T03:55:48.847Z,58.61
2023-01-28T03:58:46.109Z,59.53
2023-01-28T04:01:13.889Z,60.58
2023-01-28T04:03:41.024Z,61.81
2023-01-28T04:06:13.756Z,62.99
2023-01-28T04:09:10.035Z,58.38
2023-01-28T04:11:59.966Z,54.77
2023-01-28T04:14:39.723Z,56.03
2023-01-28T04:17:11.156Z,57.46
2023-01-28T04:19:39.952Z,58.61
2023-01-28T04:22:10.862Z,59.78
2023-01-28T04:24:39.193Z,60.54
2023-01-28T04:27:07.079Z,61.51
2023-01-28T04:29:34.954Z,63.20
2023-01-28T04:32:21.855Z,62.44
2023-01-28T04:35:15.417Z,56.58
2023-01-28T04:38:15.440Z,54.89
2023-01-28T04:40:53.016Z,56.00
2023-01-28T04:43:28.930Z,57.33
2023-01-28T04:46:15.161Z,58.10
2023-01-28T04:48:52.778Z,58.90
2023-01-28T04:51:39.077Z,60.02
2023-01-28T04:54:27.113Z,60.39
2023-01-28T04:56:57.716Z,61.02
2023-01-28T04:59:25.188Z,61.36
2023-01-28T05:01:52.325Z,62.26
2023-01-28T05:04:20.032Z,63.37
2023-01-28T05:06:47.382Z,59.97
2023-01-28T05:09:17.349Z,53.98
2023-01-28T05:11:44.612Z,54.04
2023-01-28T05:14:11.965Z,55.34
2023-01-28T05:16:43.773Z,56.35
2023-01-28T05:19:11.862Z,57.50
2023-01-28T05:21:41.799Z,58.52
2023-01-28T05:24:17.908Z,59.23
2023-01-28T05:26:45.269Z,59.79
2023-01-28T05:29:12.591Z,60.28
2023-01-28T05:31:40.061Z,60.85
2023-01-28T05:34:08.071Z,61.46
2023-01-28T05:36:35.150Z,61.99
2023-01-28T05:39:08.624Z,63.82
2023-01-28T05:41:35.829Z,61.56
2023-01-28T05:44:03.754Z,54.43
2023-01-28T05:46:48.000Z,53.83
2023-01-28T05:49:47.163Z,55.42
2023-01-28T05:52:34.622Z,56.66
2023-01-28T05:55:02.673Z,57.75
2023-01-28T05:57:30.305Z,58.29
2023-01-28T05:59:57.541Z,59.08
2023-01-28T06:02:24.695Z,59.41
2023-01-28T06:04:55.179Z,59.98
2023-01-28T06:07:23.555Z,60.72
2023-01-28T06:09:50.718Z,61.33
2023-01-28T06:12:20.601Z,61.73
2023-01-28T06:15:13.739Z,61.92
2023-01-28T06:17:55.933Z,62.33
2023-01-28T06:20:31.054Z,63.58
2023-01-28T06:22:58.738Z,58.11
2023-01-28T06:25:26.127Z,53.48
2023-01-28T06:27:54.012Z,54.20
2023-01-28T06:30:21.077Z,55.15
2023-01-28T06:32:53.976Z,56.22
2023-01-28T06:35:21.362Z,57.00
2023-01-28T06:37:48.528Z,57.97
2023-01-28T06:40:16.104Z,58.55
2023-01-28T06:42:43.460Z,59.24
2023-01-28T06:45:11.489Z,59.75
2023-01-28T06:47:39.389Z,60.22
2023-01-28T06:50:07.475Z,60.89
2023-01-28T06:52:34.539Z,61.33
2023-01-28T06:55:01.776Z,61.36
2023-01-28T06:57:28.890Z,61.84
2023-01-28T06:59:56.002Z,62.00
2023-01-28T07:02:23.627Z,63.94
2023-01-28T07:04:51.684Z,61.13
2023-01-28T07:07:18.849Z,54.40
2023-01-28T07:09:46.210Z,53.69
2023-01-28T07:12:13.302Z,54.92
2023-01-28T07:14:40.526Z,55.86
2023-01-28T07:17:07.628Z,56.68
2023-01-28T07:19:34.958Z,57.43
2023-01-28T07:22:02.951Z,58.05
2023-01-28T07:24:30.875Z,58.91
2023-01-28T07:26:58.157Z,59.69
2023-01-28T07:29:25.449Z,60.21
2023-01-28T07:31:52.625Z,60.64
2023-01-28T07:34:19.777Z,60.83
2023-01-28T07:36:46.820Z,61.05
2023-01-28T07:39:13.858Z,61.51
2023-01-28T07:41:41.122Z,61.55
2023-01-28T07:44:10.330Z,62.07
2023-01-28T07:46:37.891Z,62.34
2023-01-28T07:49:04.967Z,62.10
2023-01-28T07:51:32.171Z,62.56
2023-01-28T07:53:59.447Z,63.65
2023-01-28T07:56:28.914Z,57.98
2023-01-28T07:58:56.064Z,52.01
2023-01-28T08:01:23.246Z,52.23
2023-01-28T08:03:50.401Z,53.83
2023-01-28T08:06:17.543Z,54.75
2023-01-28T08:08:44.824Z,55.55
2023-01-28T08:11:11.926Z,56.16
2023-01-28T08:13:39.404Z,56.70
2023-01-28T08:16:06.909Z,57.27
2023-01-28T08:18:34.294Z,57.02
2023-01-28T08:21:01.452Z,57.28
2023-01-28T08:23:30.061Z,58.03
2023-01-28T08:25:58.967Z,58.45
2023-01-28T08:28:26.654Z,58.62
2023-01-28T08:30:53.940Z,58.47
2023-01-28T08:33:21.756Z,59.12
2023-01-28T08:35:48.806Z,58.55
2023-01-28T08:38:19.920Z,59.17
2023-01-28T08:40:49.966Z,59.07
2023-01-28T08:43:17.251Z,59.01
2023-01-28T08:45:44.429Z,59.63
2023-01-28T08:48:15.846Z,59.49
2023-01-28T08:50:44.132Z,59.84
2023-01-28T08:53:14.418Z,59.62
2023-01-28T08:55:42.222Z,59.61
2023-01-28T08:58:12.109Z,59.79
2023-01-28T09:00:40.336Z,60.11
2023-01-28T09:03:08.019Z,59.99
2023-01-28T09:05:35.720Z,60.11
2023-01-28T09:08:08.741Z,60.33
2023-01-28T09:10:37.812Z,60.13
2023-01-28T09:13:10.569Z,59.89
2023-01-28T09:15:38.408Z,59.71
2023-01-28T09:18:05.731Z,59.84
2023-01-28T09:20:33.346Z,59.95
2023-01-28T09:23:01.723Z,60.19
2023-01-28T09:25:29.442Z,59.64
2023-01-28T09:27:57.369Z,59.25
2023-01-28T09:30:25.492Z,58.90
2023-01-28T09:32:54.397Z,59.34
2023-01-28T09:35:22.211Z,59.62
2023-01-28T09:37:49.733Z,59.51
2023-01-28T09:40:25.499Z,59.36
2023-01-28T09:42:59.015Z,59.54
2023-01-28T09:45:42.681Z,59.21
2023-01-28T09:48:15.432Z,58.82
2023-01-28T09:50:48.053Z,58.36
2023-01-28T09:53:19.784Z,58.44
2023-01-28T09:55:50.949Z,58.41
2023-01-28T09:58:18.131Z,58.64
2023-01-28T10:00:54.077Z,58.71
2023-01-28T10:03:43.706Z,59.09
2023-01-28T10:06:20.020Z,58.83
2023-01-28T10:09:17.948Z,59.11
2023-01-28T10:11:59.894Z,59.09
2023-01-28T10:14:45.024Z,58.93
2023-01-28T10:17:34.888Z,59.11
2023-01-28T10:20:17.735Z,58.80
2023-01-28T10:22:51.240Z,59.29
2023-01-28T10:25:24.952Z,59.35
2023-01-28T10:27:52.867Z,59.29
2023-01-28T10:30:24.937Z,59.52
2023-01-28T10:33:04.158Z,59.88
2023-01-28T10:35:38.087Z,60.33
2023-01-28T10:38:10.421Z,60.59
2023-01-28T10:40:37.546Z,60.80
2023-01-28T10:43:04.946Z,60.71
2023-01-28T10:45:45.546Z,60.71
2023-01-28T10:48:21.897Z,60.71
2023-01-28T10:51:02.064Z,60.93
2023-01-28T10:53:37.297Z,61.56
2023-01-28T10:56:08.746Z,61.22
2023-01-28T10:58:53.872Z,60.58
2023-01-28T11:01:22.023Z,60.64
2023-01-28T11:03:57.735Z,61.15
2023-01-28T11:06:29.541Z,61.47
2023-01-28T11:08:56.698Z,61.56
2023-01-28T11:11:28.163Z,61.66
2023-01-28T11:13:58.055Z,61.39
2023-01-28T11:16:26.455Z,61.28
2023-01-28T11:18:57.565Z,61.31
2023-01-28T11:21:27.546Z,62.12
2023-01-28T11:23:59.563Z,64.29
2023-01-28T11:26:34.258Z,59.14
2023-01-28T11:29:01.409Z,53.20
2023-01-28T11:31:29.075Z,52.39
2023-01-28T11:33:57.170Z,53.06
2023-01-28T11:36:32.442Z,53.39
2023-01-28T11:39:05.036Z,53.93
2023-01-28T11:41:37.631Z,55.08
2023-01-28T11:44:25.918Z,56.15
2023-01-28T11:47:14.507Z,56.70
2023-01-28T11:49:48.494Z,56.63
2023-01-28T11:53:04.871Z,56.86
2023-01-28T11:55:41.287Z,57.20
2023-01-28T11:58:31.709Z,57.41
2023-01-28T12:01:36.094Z,57.66
2023-01-28T12:04:42.813Z,57.93
2023-01-28T12:07:28.515Z,58.46
2023-01-28T12:10:19.184Z,58.83
2023-01-28T12:13:09.661Z,59.19
2023-01-28T12:15:39.608Z,59.24
2023-01-28T12:18:22.732Z,59.30
2023-01-28T12:21:00.851Z,59.54
2023-01-28T12:23:50.764Z,60.01
2023-01-28T12:26:50.361Z,60.20
2023-01-28T12:29:47.072Z,59.34
2023-01-28T12:32:39.100Z,59.28
2023-01-28T12:35:25.508Z,59.79
2023-01-28T12:38:07.188Z,60.30
2023-01-28T12:40:57.205Z,60.28
2023-01-28T12:43:49.003Z,60.00
2023-01-28T12:46:22.348Z,60.06
2023-01-28T12:48:58.468Z,60.09
2023-01-28T12:51:36.072Z,60.11
2023-01-28T12:54:21.811Z,60.19
2023-01-28T12:56:52.776Z,60.35
2023-01-28T12:59:28.878Z,60.38
2023-01-28T13:02:11.195Z,60.11
2023-01-28T13:04:47.631Z,60.30
2023-01-28T13:07:22.074Z,60.81
2023-01-28T13:09:54.503Z,60.75
2023-01-28T13:12:22.621Z,60.44
2023-01-28T13:14:52.652Z,60.72
2023-01-28T13:17:29.522Z,60.55
2023-01-28T13:19:58.859Z,60.90
2023-01-28T13:22:28.164Z,60.93
2023-01-28T13:24:55.362Z,61.38
2023-01-28T13:27:25.514Z,61.45
2023-01-28T13:30:06.988Z,61.85
2023-01-28T13:32:35.532Z,61.65
2023-01-28T13:35:26.759Z,61.68
2023-01-28T13:37:56.883Z,61.70
2023-01-28T13:40:28.599Z,61.88
2023-01-28T13:43:23.337Z,61.65
2023-01-28T13:46:01.768Z,61.36
2023-01-28T13:48:46.025Z,61.81
2023-01-28T13:51:20.183Z,62.18
2023-01-28T13:53:55.854Z,63.80
2023-01-28T13:56:30.059Z,61.25
2023-01-28T13:59:29.487Z,53.67
2023-01-28T14:02:25.619Z,52.86
2023-01-28T14:05:20.273Z,53.95
2023-01-28T14:08:08.840Z,54.41
2023-01-28T14:10:44.743Z,55.25
2023-01-28T14:13:17.834Z,55.58
2023-01-28T14:16:03.078Z,56.20
2023-01-28T14:18:33.153Z,56.81
2023-01-28T14:21:03.209Z,57.24
2023-01-28T14:23:31.935Z,57.31
2023-01-28T14:26:33.056Z,57.40
2023-01-28T14:29:18.052Z,58.00
2023-01-28T14:31:45.976Z,58.78
2023-01-28T14:34:30.338Z,59.01
2023-01-28T14:37:04.373Z,59.25
2023-01-28T14:39:41.326Z,59.81
2023-01-28T14:42:17.879Z,59.55
2023-01-28T14:44:48.904Z,59.28
2023-01-28T14:47:45.791Z,59.33
2023-01-28T14:50:26.368Z,59.47
2023-01-28T14:53:02.696Z,59.95
2023-01-28T14:55:37.653Z,60.14
2023-01-28T14:58:12.530Z,60.20
2023-01-28T15:00:39.703Z,60.43
2023-01-28T15:03:26.741Z,60.64
2023-01-28T15:06:06.047Z,60.33
2023-01-28T15:08:33.276Z,60.29
2023-01-28T15:11:01.891Z,60.50
2023-01-28T15:13:34.013Z,60.71
2023-01-28T15:16:01.560Z,60.55
2023-01-28T15:18:42.372Z,60.57
2023-01-28T15:21:10.017Z,60.32
2023-01-28T15:23:41.568Z,60.59
2023-01-28T15:26:30.451Z,61.02
2023-01-28T15:28:57.868Z,61.27
2023-01-28T15:31:30.981Z,61.29
2023-01-28T15:34:19.027Z,61.29
2023-01-28T15:36:49.491Z,61.49
2023-01-28T15:39:22.494Z,62.05
2023-01-28T15:41:54.874Z,64.35
2023-01-28T15:44:29.853Z,62.05
2023-01-28T15:46:58.797Z,54.92
2023-01-28T15:49:31.368Z,53.80
2023-01-28T15:51:58.641Z,55.10
2023-01-28T15:54:26.430Z,55.76
2023-01-28T15:56:53.569Z,56.43
2023-01-28T15:59:27.766Z,57.10
2023-01-28T16:02:18.497Z,57.64
2023-01-28T16:05:00.300Z,58.10
2023-01-28T16:07:30.105Z,58.63
2023-01-28T16:09:59.384Z,59.18
2023-01-28T16:12:27.193Z,59.50
2023-01-28T16:14:57.453Z,60.00
2023-01-28T16:17:28.863Z,60.37
2023-01-28T16:20:05.645Z,60.64
2023-01-28T16:22:38.688Z,60.94
2023-01-28T16:25:21.070Z,61.35
2023-01-28T16:27:49.097Z,61.98
2023-01-28T16:30:16.996Z,62.45
2023-01-28T16:32:44.921Z,64.70
2023-01-28T16:35:23.179Z,61.52
2023-01-28T16:37:50.686Z,54.84
2023-01-28T16:40:24.690Z,54.10
2023-01-28T16:42:55.588Z,55.54
2023-01-28T16:45:25.823Z,57.04
2023-01-28T16:47:53.421Z,57.86
2023-01-28T16:50:22.463Z,58.36
2023-01-28T16:52:53.377Z,58.86
2023-01-28T16:55:22.098Z,59.49
2023-01-28T16:57:52.631Z,60.00
2023-01-28T17:00:25.337Z,60.44
2023-01-28T17:02:54.279Z,60.65
2023-01-28T17:05:22.820Z,61.08
2023-01-28T17:07:50.205Z,61.46
2023-01-28T17:10:17.902Z,61.92
2023-01-28T17:12:47.729Z,62.16
2023-01-28T17:15:15.650Z,62.80
2023-01-28T17:17:42.805Z,64.65
2023-01-28T17:20:11.110Z,59.41
2023-01-28T17:22:38.346Z,53.86
2023-01-28T17:25:05.948Z,54.45
2023-01-28T17:27:33.078Z,55.11
2023-01-28T17:30:00.192Z,56.41
2023-01-28T17:32:27.347Z,57.40
2023-01-28T17:34:54.494Z,58.06
2023-01-28T17:37:22.169Z,58.83
2023-01-28T17:39:49.316Z,59.49
2023-01-28T17:42:16.751Z,60.02
2023-01-28T17:44:43.865Z,60.43
2023-01-28T17:47:11.839Z,61.20
2023-01-28T17:49:38.992Z,61.66
2023-01-28T17:52:06.206Z,62.22
2023-01-28T17:54:34.912Z,63.99
2023-01-28T17:57:02.082Z,61.67
2023-01-28T17:59:29.962Z,54.84
2023-01-28T18:01:57.966Z,53.57
2023-01-28T18:04:25.135Z,54.45
2023-01-28T18:06:52.318Z,55.70
2023-01-28T18:09:19.588Z,56.86
2023-01-28T18:11:47.060Z,57.57
2023-01-28T18:14:14.229Z,58.62
2023-01-28T18:16:41.310Z,59.46
2023-01-28T18:19:10.634Z,59.67
2023-01-28T18:21:52.729Z,60.24
2023-01-28T18:24:23.334Z,60.86
2023-01-28T18:26:57.670Z,61.15
2023-01-28T18:29:26.148Z,61.82
2023-01-28T18:31:54.890Z,62.29
2023-01-28T18:34:24.092Z,63.84
2023-01-28T18:36:51.800Z,61.87
2023-01-28T18:39:19.927Z,55.26
2023-01-28T18:41:47.212Z,53.92
2023-01-28T18:44:15.324Z,55.05
2023-01-28T18:46:42.725Z,56.21
2023-01-28T18:49:10.278Z,57.20
2023-01-28T18:51:38.203Z,58.15
2023-01-28T18:54:08.820Z,58.86
2023-01-28T18:56:39.156Z,59.35
2023-01-28T18:59:09.461Z,59.90
2023-01-28T19:01:36.694Z,60.56
2023-01-28T19:04:03.971Z,61.50
2023-01-28T19:06:31.469Z,62.15
2023-01-28T19:09:02.811Z,63.22
2023-01-28T19:11:30.319Z,63.41
2023-01-28T19:13:57.991Z,58.07
2023-01-28T19:16:26.031Z,54.14
2023-01-28T19:18:59.154Z,54.81
2023-01-28T19:21:28.653Z,56.36
2023-01-28T19:23:59.971Z,57.40
2023-01-28T19:26:29.781Z,58.54
2023-01-28T19:28:57.235Z,59.39
2023-01-28T19:31:25.587Z,60.01
2023-01-28T19:33:55.734Z,60.79
2023-01-28T19:36:23.974Z,61.57
2023-01-28T19:38:52.049Z,61.74
2023-01-28T19:41:19.224Z,63.30
2023-01-28T19:43:47.093Z,63.60
2023-01-28T19:46:17.589Z,58.20
2023-01-28T19:48:45.170Z,54.21
2023-01-28T19:51:13.961Z,54.91
2023-01-28T19:53:42.761Z,56.31
2023-01-28T19:56:13.152Z,57.79
2023-01-28T19:58:43.005Z,58.59
2023-01-28T20:01:21.888Z,59.30
2023-01-28T20:03:51.689Z,60.29
2023-01-28T20:06:19.053Z,61.34
2023-01-28T20:08:51.888Z,61.85
2023-01-28T20:11:19.429Z,63.20
2023-01-28T20:13:47.854Z,63.03
2023-01-28T20:16:26.542Z,58.36
2023-01-28T20:18:53.605Z,54.28
2023-01-28T20:21:21.258Z,55.11
2023-01-28T20:23:51.102Z,56.44
2023-01-28T20:26:23.465Z,57.48
2023-01-28T20:28:50.933Z,58.79
2023-01-28T20:31:19.327Z,59.57
2023-01-28T20:33:46.710Z,60.41
2023-01-28T20:36:14.510Z,61.31
2023-01-28T20:38:47.114Z,62.81
2023-01-28T20:41:19.875Z,63.53
2023-01-28T20:43:48.662Z,59.06
2023-01-28T20:46:21.865Z,54.47
2023-01-28T20:48:49.707Z,55.09
2023-01-28T20:51:22.899Z,56.46
2023-01-28T20:53:50.703Z,57.66
2023-01-28T20:56:20.390Z,58.85
2023-01-28T20:58:53.188Z,59.56
2023-01-28T21:01:23.433Z,60.50
2023-01-28T21:03:50.968Z,61.33
2023-01-28T21:06:18.682Z,62.10
2023-01-28T21:08:45.814Z,64.46
2023-01-28T21:11:13.582Z,62.20
2023-01-28T21:13:40.842Z,56.33
2023-01-28T21:16:08.365Z,54.30
2023-01-28T21:18:35.532Z,55.73
2023-01-28T21:21:05.285Z,57.16
2023-01-28T21:23:32.782Z,58.60
2023-01-28T21:26:04.914Z,59.42
2023-01-28T21:28:32.375Z,60.23
2023-01-28T21:31:09.929Z,61.61
2023-01-28T21:33:37.357Z,62.16
2023-01-28T21:36:12.390Z,64.14
2023-01-28T21:38:39.965Z,61.78
2023-01-28T21:41:08.595Z,56.13
2023-01-28T21:43:36.029Z,55.53
2023-01-28T21:46:03.657Z,56.88
2023-01-28T21:48:36.971Z,58.18
2023-01-28T21:51:26.226Z,59.25
2023-01-28T21:53:53.645Z,60.92
2023-01-28T21:56:20.891Z,61.77
2023-01-28T21:59:06.420Z,64.33
2023-01-28T22:01:33.799Z,62.17
2023-01-28T22:04:01.122Z,56.65
2023-01-28T22:06:28.219Z,55.03
2023-01-28T22:08:55.372Z,56.48
2023-01-28T22:11:22.597Z,57.93
2023-01-28T22:13:50.013Z,59.06
2023-01-28T22:16:17.969Z,60.00
2023-01-28T22:18:46.310Z,60.94
2023-01-28T22:21:13.535Z,61.71
2023-01-28T22:23:40.709Z,62.96
2023-01-28T22:26:07.846Z,64.55
2023-01-28T22:28:36.966Z,60.44
2023-01-28T22:31:06.694Z,54.99
2023-01-28T22:33:35.105Z,55.15
2023-01-28T22:36:05.191Z,56.76
2023-01-28T22:38:32.370Z,57.94
2023-01-28T22:41:14.292Z,59.34
2023-01-28T22:43:41.609Z,60.20
2023-01-28T22:46:09.457Z,61.39
2023-01-28T22:48:38.502Z,62.07
2023-01-28T22:51:13.722Z,63.79
2023-01-28T22:53:41.223Z,63.88
2023-01-28T22:56:08.591Z,58.18
2023-01-28T22:58:36.093Z,54.34
2023-01-28T23:01:03.704Z,55.34
2023-01-28T23:03:30.877Z,56.92
2023-01-28T23:05:59.106Z,58.09
2023-01-28T23:08:27.237Z,59.07
2023-01-28T23:10:56.971Z,60.04
2023-01-28T23:13:25.704Z,61.21
2023-01-28T23:16:11.979Z,62.50
2023-01-28T23:18:57.854Z,63.92
2023-01-28T23:21:46.887Z,59.40
2023-01-28T23:24:20.558Z,54.58
2023-01-28T23:26:58.993Z,55.50
2023-01-28T23:29:28.040Z,57.37
2023-01-28T23:32:00.711Z,58.38
2023-01-28T23:34:31.323Z,59.37
2023-01-28T23:36:58.402Z,60.51
2023-01-28T23:39:25.669Z,61.31
2023-01-28T23:41:52.785Z,63.02
2023-01-28T23:44:24.658Z,63.41
2023-01-28T23:46:51.917Z,57.80
2023-01-28T23:49:19.423Z,54.98
2023-01-28T23:51:46.706Z,56.08
2023-01-28T23:54:13.768Z,57.85
2023-01-28T23:56:41.483Z,59.20
2023-01-28T23:59:08.575Z,60.65
